Tropical Cyclones
[Index]
Main Index Home Page Stock Weather Photos Extreme Storms Discussion Storm News and Storm Chasing Reports Tropical Cyclones / Hurricanes / Typhoons Weather Data and Links Wild Fires / Bushfires Weather Observation Techniques Weather Picture Catalogue Tornado Pictures and Reports Stock Video Footage and DVDs for sale
Season 2012-2013 Tropical Cyclone OSWALD Track Map
Season 2012-2013 Summaries: [BoM-AU] [JTWC-AU] [JTWC-SIO] [JTWC-SPAC] [JTWC-SH]
<<- Previous TC | BoM 2012-2013 Season | Next TC ->>

click for intensity scale information  Lat/long Grid: Show Hide

 Date Labels: Show Hide

Bureau of Meteorology Tropical Cyclone Data

Name: OSWALD
Number: 963 / 201213_07

17 Jan 2013 12:00 UTC to 28 Jan 2013 12:00 UTC

    date/time    lat    long    hPa   cat  kts
2013-01-17 12   14.0   138.0   1003         15          
2013-01-17 18   15.5   138.5   1000         15          
2013-01-18 06   16.8   138.5    998         20          
2013-01-18 12   16.7   137.9    998         20          
2013-01-18 18   16.6   136.8    998         20          
2013-01-20 12   16.3   137.3    999         20          
2013-01-20 18   15.7   139.1    997         30          
2013-01-21 00   15.9   140.2    996         30          
2013-01-21 06   15.9   140.7    992    1    35          
2013-01-21 12   15.5   141.3    992    1    35          
2013-01-21 18   15.0   141.7    991    1    30          
2013-01-22 00   14.3   142.1    993    1    25          
2013-01-22 06   14.1   143.2                            
2013-01-22 12   14.6   144.3                            
2013-01-22 18   15.5   144.8                            
2013-01-23 00   15.8   144.8                            
2013-01-23 06   16.1   144.6                            
2013-01-23 12   16.9   144.8                            
2013-01-23 18   17.9   145.0                            
2013-01-24 00   18.8   145.6                            
2013-01-24 06   19.9   146.9                            
2013-01-24 12   21.2   147.7                            
2013-01-24 18   21.5   148.2                            
2013-01-25 00   22.4   148.6                            
2013-01-25 06   22.9   149.3                            
2013-01-25 12   23.0   149.3                            
2013-01-25 18   23.2   149.1                            
2013-01-26 00   23.3   148.6                            
2013-01-26 06   23.6   148.5                            
2013-01-26 12   24.0   149.4                            
2013-01-26 18   24.6   150.0                            
2013-01-27 00   26.4   149.9                            
2013-01-27 06   26.7   150.4                            
2013-01-27 12   26.9   150.9                            
2013-01-27 18   27.0   151.0                            
2013-01-28 00   27.3   151.1                            
2013-01-28 06   28.9   150.9                            
2013-01-28 12   31.1   151.1                            
Winds are 10-min average.

Tropical cyclone tracks developed by Michael Bath using data from the Bureau of Meteorology and Google Maps.


[Australian Severe Weather index] [Copyright Notice] [Email Contacts] [Search This Site] [Privacy Policy]
Document: tropical_cyclone_oswald.htm Updated: 29 June 2017